sensor_id;sensor_type;location;lat;lon;timestamp;pressure;altitude;pressure_sealevel;temperature;humidity
77572;BME280;67214;47.454;18.966;2023-12-22T00:01:58;97867.33;;;5.87;94.01
77572;BME280;67214;47.454;18.966;2023-12-22T00:04:26;97862.59;;;5.90;93.92
77572;BME280;67214;47.454;18.966;2023-12-22T00:06:53;97850.80;;;5.94;93.19
77572;BME280;67214;47.454;18.966;2023-12-22T00:09:21;97879.66;;;5.86;93.51
77572;BME280;67214;47.454;18.966;2023-12-22T00:11:48;97880.80;;;5.88;93.00
77572;BME280;67214;47.454;18.966;2023-12-22T00:14:15;97878.89;;;5.80;94.23
77572;BME280;67214;47.454;18.966;2023-12-22T00:16:43;97880.69;;;5.80;93.90
77572;BME280;67214;47.454;18.966;2023-12-22T00:19:10;97899.89;;;5.76;94.50
77572;BME280;67214;47.454;18.966;2023-12-22T00:21:38;97897.87;;;5.70;94.89
77572;BME280;67214;47.454;18.966;2023-12-22T00:24:06;97897.95;;;5.65;95.40
77572;BME280;67214;47.454;18.966;2023-12-22T00:26:33;97900.84;;;5.57;96.05
77572;BME280;67214;47.454;18.966;2023-12-22T00:29:01;97920.47;;;5.49;97.04
77572;BME280;67214;47.454;18.966;2023-12-22T00:31:28;97919.64;;;5.49;97.82
77572;BME280;67214;47.454;18.966;2023-12-22T00:33:56;97936.08;;;5.51;97.65
77572;BME280;67214;47.454;18.966;2023-12-22T00:36:23;97958.95;;;5.54;97.36
77572;BME280;67214;47.454;18.966;2023-12-22T00:38:51;97954.48;;;5.65;96.21
77572;BME280;67214;47.454;18.966;2023-12-22T00:41:18;97947.62;;;5.68;96.40
77572;BME280;67214;47.454;18.966;2023-12-22T00:43:46;97944.45;;;5.78;96.08
77572;BME280;67214;47.454;18.966;2023-12-22T00:46:14;97933.59;;;5.77;96.94
77572;BME280;67214;47.454;18.966;2023-12-22T00:48:41;97941.44;;;5.73;97.56
77572;BME280;67214;47.454;18.966;2023-12-22T00:51:09;97940.69;;;5.80;97.53
77572;BME280;67214;47.454;18.966;2023-12-22T00:53:36;97933.77;;;5.79;98.03
77572;BME280;67214;47.454;18.966;2023-12-22T00:56:04;97942.31;;;5.77;98.41
77572;BME280;67214;47.454;18.966;2023-12-22T00:58:32;97960.41;;;5.80;98.30
77572;BME280;67214;47.454;18.966;2023-12-22T01:00:59;97983.55;;;5.86;97.86
77572;BME280;67214;47.454;18.966;2023-12-22T01:03:27;97983.06;;;5.87;98.19
77572;BME280;67214;47.454;18.966;2023-12-22T01:05:54;97968.64;;;5.91;97.58
77572;BME280;67214;47.454;18.966;2023-12-22T01:08:21;97915.82;;;5.88;97.60
77572;BME280;67214;47.454;18.966;2023-12-22T01:10:49;97896.75;;;5.86;97.64
77572;BME280;67214;47.454;18.966;2023-12-22T01:13:16;97912.59;;;5.81;97.80
77572;BME280;67214;47.454;18.966;2023-12-22T01:15:44;97912.45;;;5.82;98.07
77572;BME280;67214;47.454;18.966;2023-12-22T01:18:11;97929.99;;;5.78;98.40
77572;BME280;67214;47.454;18.966;2023-12-22T01:20:39;97939.68;;;5.77;98.50
77572;BME280;67214;47.454;18.966;2023-12-22T01:23:06;97941.13;;;5.76;98.77
77572;BME280;67214;47.454;18.966;2023-12-22T01:25:33;97934.12;;;5.80;97.79
77572;BME280;67214;47.454;18.966;2023-12-22T01:28:01;97931.31;;;5.78;97.82
77572;BME280;67214;47.454;18.966;2023-12-22T01:30:28;97947.09;;;5.78;97.68
77572;BME280;67214;47.454;18.966;2023-12-22T01:32:56;97936.61;;;5.82;96.71
77572;BME280;67214;47.454;18.966;2023-12-22T01:35:23;97937.23;;;5.80;97.14
77572;BME280;67214;47.454;18.966;2023-12-22T01:37:50;97927.68;;;5.79;96.87
77572;BME280;67214;47.454;18.966;2023-12-22T01:40:18;97926.84;;;5.74;97.59
77572;BME280;67214;47.454;18.966;2023-12-22T01:42:46;97934.91;;;5.77;96.77
77572;BME280;67214;47.454;18.966;2023-12-22T01:45:14;97925.56;;;5.65;97.33
77572;BME280;67214;47.454;18.966;2023-12-22T01:47:42;97930.52;;;5.68;96.86
77572;BME280;67214;47.454;18.966;2023-12-22T01:50:10;97933.36;;;5.70;96.07
77572;BME280;67214;47.454;18.966;2023-12-22T01:52:39;97935.83;;;5.72;95.30
77572;BME280;67214;47.454;18.966;2023-12-22T01:55:10;97947.88;;;5.74;94.95
77572;BME280;67214;47.454;18.966;2023-12-22T01:57:39;97942.13;;;5.88;92.83
77572;BME280;67214;47.454;18.966;2023-12-22T02:00:09;97933.67;;;5.85;93.15
77572;BME280;67214;47.454;18.966;2023-12-22T02:02:37;97926.55;;;5.91;91.99
77572;BME280;67214;47.454;18.966;2023-12-22T02:05:06;97892.63;;;5.88;92.03
77572;BME280;67214;47.454;18.966;2023-12-22T02:07:35;97880.59;;;5.85;92.03
77572;BME280;67214;47.454;18.966;2023-12-22T02:10:03;97860.78;;;5.77;92.57
77572;BME280;67214;47.454;18.966;2023-12-22T02:12:30;97866.00;;;5.73;93.03
77572;BME280;67214;47.454;18.966;2023-12-22T02:14:58;97853.92;;;5.67;93.03
77572;BME280;67214;47.454;18.966;2023-12-22T02:17:32;97864.36;;;5.58;94.00
77572;BME280;67214;47.454;18.966;2023-12-22T02:19:59;97861.33;;;5.67;93.03
77572;BME280;67214;47.454;18.966;2023-12-22T02:22:28;97859.22;;;5.71;92.88
77572;BME280;67214;47.454;18.966;2023-12-22T02:24:56;97847.73;;;5.72;92.36
77572;BME280;67214;47.454;18.966;2023-12-22T02:27:28;97859.22;;;5.71;92.41
77572;BME280;67214;47.454;18.966;2023-12-22T02:30:12;97868.39;;;5.67;92.75
77572;BME280;67214;47.454;18.966;2023-12-22T02:32:38;97850.53;;;5.70;92.48
77572;BME280;67214;47.454;18.966;2023-12-22T02:35:10;97820.44;;;5.69;92.54
77572;BME280;67214;47.454;18.966;2023-12-22T02:37:39;97844.55;;;5.64;92.90
77572;BME280;67214;47.454;18.966;2023-12-22T02:40:08;97883.68;;;5.67;92.84
77572;BME280;67214;47.454;18.966;2023-12-22T02:42:37;97886.56;;;5.74;92.39
77572;BME280;67214;47.454;18.966;2023-12-22T02:45:06;97887.16;;;5.85;90.94
77572;BME280;67214;47.454;18.966;2023-12-22T02:47:35;97921.94;;;5.79;91.67
77572;BME280;67214;47.454;18.966;2023-12-22T02:50:03;97923.91;;;5.77;91.82
77572;BME280;67214;47.454;18.966;2023-12-22T02:52:30;97917.91;;;5.71;92.09
77572;BME280;67214;47.454;18.966;2023-12-22T02:54:58;97915.58;;;5.68;92.31
77572;BME280;67214;47.454;18.966;2023-12-22T02:57:26;97912.60;;;5.67;92.04
77572;BME280;67214;47.454;18.966;2023-12-22T02:59:53;97883.50;;;5.51;93.13
77572;BME280;67214;47.454;18.966;2023-12-22T03:02:20;97875.44;;;5.48;92.76
77572;BME280;67214;47.454;18.966;2023-12-22T03:04:48;97869.79;;;5.43;92.75
77572;BME280;67214;47.454;18.966;2023-12-22T03:07:16;97866.23;;;5.35;93.42
77572;BME280;67214;47.454;18.966;2023-12-22T03:09:44;97862.20;;;5.40;92.45
77572;BME280;67214;47.454;18.966;2023-12-22T03:12:11;97886.95;;;5.34;92.75
77572;BME280;67214;47.454;18.966;2023-12-22T03:14:39;97880.56;;;5.36;92.25
77572;BME280;67214;47.454;18.966;2023-12-22T03:17:07;97893.12;;;5.29;92.61
77572;BME280;67214;47.454;18.966;2023-12-22T03:19:36;97903.83;;;5.18;93.13
77572;BME280;67214;47.454;18.966;2023-12-22T03:22:03;97914.66;;;5.19;92.72
77572;BME280;67214;47.454;18.966;2023-12-22T03:24:31;97898.22;;;5.17;92.53
77572;BME280;67214;47.454;18.966;2023-12-22T03:26:58;97916.70;;;5.11;92.63
77572;BME280;67214;47.454;18.966;2023-12-22T03:29:26;97936.83;;;5.06;92.59
77572;BME280;67214;47.454;18.966;2023-12-22T03:31:53;97953.47;;;5.11;92.11
77572;BME280;67214;47.454;18.966;2023-12-22T03:34:20;97952.22;;;5.15;91.21
77572;BME280;67214;47.454;18.966;2023-12-22T03:36:48;97951.76;;;5.06;91.63
77572;BME280;67214;47.454;18.966;2023-12-22T03:39:16;97954.71;;;5.17;90.00
77572;BME280;67214;47.454;18.966;2023-12-22T03:41:43;97943.55;;;5.19;89.17
77572;BME280;67214;47.454;18.966;2023-12-22T03:44:11;97931.84;;;5.27;86.81
77572;BME280;67214;47.454;18.966;2023-12-22T03:46:38;97933.37;;;5.29;85.25
77572;BME280;67214;47.454;18.966;2023-12-22T03:49:06;97944.25;;;5.34;82.50
77572;BME280;67214;47.454;18.966;2023-12-22T03:51:33;97943.73;;;5.44;80.37
77572;BME280;67214;47.454;18.966;2023-12-22T03:54:01;97970.66;;;5.56;77.96
77572;BME280;67214;47.454;18.966;2023-12-22T03:56:28;97959.88;;;5.63;77.02
77572;BME280;67214;47.454;18.966;2023-12-22T03:58:56;97958.34;;;5.56;77.39
77572;BME280;67214;47.454;18.966;2023-12-22T04:01:23;97967.30;;;5.50;77.75
77572;BME280;67214;47.454;18.966;2023-12-22T04:03:51;97970.30;;;5.55;76.15
77572;BME280;67214;47.454;18.966;2023-12-22T04:06:19;97977.70;;;5.55;75.52
77572;BME280;67214;47.454;18.966;2023-12-22T04:08:46;97965.44;;;5.60;74.34
77572;BME280;67214;47.454;18.966;2023-12-22T04:11:13;97983.03;;;5.46;75.22
77572;BME280;67214;47.454;18.966;2023-12-22T04:13:41;97998.34;;;5.37;75.33
77572;BME280;67214;47.454;18.966;2023-12-22T04:16:08;97997.43;;;5.42;74.42
77572;BME280;67214;47.454;18.966;2023-12-22T04:18:36;97991.23;;;5.47;72.30
77572;BME280;67214;47.454;18.966;2023-12-22T04:21:03;97993.12;;;5.54;72.79
77572;BME280;67214;47.454;18.966;2023-12-22T04:23:31;97987.44;;;5.59;71.01
77572;BME280;67214;47.454;18.966;2023-12-22T04:25:58;97984.77;;;5.69;69.97
77572;BME280;67214;47.454;18.966;2023-12-22T04:28:26;98003.67;;;5.82;68.19
77572;BME280;67214;47.454;18.966;2023-12-22T04:30:53;98000.66;;;5.77;69.46
77572;BME280;67214;47.454;18.966;2023-12-22T04:33:21;98006.34;;;5.72;69.67
77572;BME280;67214;47.454;18.966;2023-12-22T04:35:48;98010.94;;;5.70;69.08
77572;BME280;67214;47.454;18.966;2023-12-22T04:38:15;98007.56;;;5.64;69.79
77572;BME280;67214;47.454;18.966;2023-12-22T04:40:43;97995.02;;;5.58;70.44
77572;BME280;67214;47.454;18.966;2023-12-22T04:43:10;98004.97;;;5.41;70.97
77572;BME280;67214;47.454;18.966;2023-12-22T04:45:38;97994.42;;;5.27;71.69
77572;BME280;67214;47.454;18.966;2023-12-22T04:48:06;97996.47;;;5.10;73.78
77572;BME280;67214;47.454;18.966;2023-12-22T04:50:34;98003.41;;;5.01;73.82
77572;BME280;67214;47.454;18.966;2023-12-22T04:53:01;98010.00;;;4.92;74.51
77572;BME280;67214;47.454;18.966;2023-12-22T04:55:29;98020.16;;;4.81;75.46
77572;BME280;67214;47.454;18.966;2023-12-22T04:57:56;98025.86;;;4.77;75.21
77572;BME280;67214;47.454;18.966;2023-12-22T05:00:24;98033.22;;;4.77;75.25
77572;BME280;67214;47.454;18.966;2023-12-22T05:02:52;98019.97;;;4.69;75.58
77572;BME280;67214;47.454;18.966;2023-12-22T05:05:20;98032.77;;;4.68;75.49
77572;BME280;67214;47.454;18.966;2023-12-22T05:07:47;98042.23;;;4.55;76.17
77572;BME280;67214;47.454;18.966;2023-12-22T05:10:15;98046.15;;;4.46;76.29
77572;BME280;67214;47.454;18.966;2023-12-22T05:12:43;98054.08;;;4.40;77.00
77572;BME280;67214;47.454;18.966;2023-12-22T05:15:11;98043.50;;;4.36;77.13
77572;BME280;67214;47.454;18.966;2023-12-22T05:17:38;98070.25;;;4.45;76.08
77572;BME280;67214;47.454;18.966;2023-12-22T05:20:09;98072.13;;;4.39;76.70
77572;BME280;67214;47.454;18.966;2023-12-22T05:22:38;98072.50;;;4.25;77.52
77572;BME280;67214;47.454;18.966;2023-12-22T05:25:06;98073.66;;;4.17;77.73
77572;BME280;67214;47.454;18.966;2023-12-22T05:27:34;98075.59;;;4.25;77.10
77572;BME280;67214;47.454;18.966;2023-12-22T05:30:02;98072.34;;;4.17;76.96
77572;BME280;67214;47.454;18.966;2023-12-22T05:32:30;98072.50;;;4.15;77.08
77572;BME280;67214;47.454;18.966;2023-12-22T05:34:58;98089.75;;;4.18;75.82
77572;BME280;67214;47.454;18.966;2023-12-22T05:37:25;98083.83;;;4.26;75.53
77572;BME280;67214;47.454;18.966;2023-12-22T05:39:52;98083.24;;;4.47;73.86
77572;BME280;67214;47.454;18.966;2023-12-22T05:42:20;98086.00;;;4.36;74.09
77572;BME280;67214;47.454;18.966;2023-12-22T05:44:47;98080.80;;;4.30;73.96
77572;BME280;67214;47.454;18.966;2023-12-22T05:47:16;98095.98;;;4.36;73.28
77572;BME280;67214;47.454;18.966;2023-12-22T05:49:44;98090.23;;;4.52;71.67
77572;BME280;67214;47.454;18.966;2023-12-22T05:52:12;98086.95;;;4.35;72.56
77572;BME280;67214;47.454;18.966;2023-12-22T05:54:40;98104.21;;;4.37;72.03
77572;BME280;67214;47.454;18.966;2023-12-22T05:57:07;98106.08;;;4.41;71.32
77572;BME280;67214;47.454;18.966;2023-12-22T05:59:35;98114.91;;;4.30;71.71
77572;BME280;67214;47.454;18.966;2023-12-22T06:02:03;98113.59;;;4.30;71.19
77572;BME280;67214;47.454;18.966;2023-12-22T06:04:30;98122.90;;;4.29;70.99
77572;BME280;67214;47.454;18.966;2023-12-22T06:06:57;98126.59;;;4.16;70.67
77572;BME280;67214;47.454;18.966;2023-12-22T06:09:25;98125.16;;;4.43;68.59
77572;BME280;67214;47.454;18.966;2023-12-22T06:11:52;98129.30;;;4.45;68.74
77572;BME280;67214;47.454;18.966;2023-12-22T06:14:20;98129.62;;;4.37;69.01
77572;BME280;67214;47.454;18.966;2023-12-22T06:16:48;98134.45;;;4.56;67.11
77572;BME280;67214;47.454;18.966;2023-12-22T06:19:17;98162.77;;;4.62;66.40
77572;BME280;67214;47.454;18.966;2023-12-22T06:21:44;98163.72;;;4.61;66.59
77572;BME280;67214;47.454;18.966;2023-12-22T06:24:11;98177.65;;;4.52;67.08
77572;BME280;67214;47.454;18.966;2023-12-22T06:26:39;98181.22;;;4.66;66.03
77572;BME280;67214;47.454;18.966;2023-12-22T06:29:06;98185.52;;;4.52;67.19
77572;BME280;67214;47.454;18.966;2023-12-22T06:31:34;98198.47;;;4.35;68.40
77572;BME280;67214;47.454;18.966;2023-12-22T06:34:01;98199.78;;;4.35;67.32
77572;BME280;67214;47.454;18.966;2023-12-22T06:36:29;98189.38;;;4.39;67.14
77572;BME280;67214;47.454;18.966;2023-12-22T06:38:56;98188.18;;;4.37;66.85
77572;BME280;67214;47.454;18.966;2023-12-22T06:41:31;98187.18;;;4.29;67.57
77572;BME280;67214;47.454;18.966;2023-12-22T06:43:58;98189.31;;;4.19;67.30
77572;BME280;67214;47.454;18.966;2023-12-22T06:46:27;98176.59;;;4.25;66.43
77572;BME280;67214;47.454;18.966;2023-12-22T06:48:57;98177.41;;;4.40;65.14
77572;BME280;67214;47.454;18.966;2023-12-22T06:51:26;98176.77;;;4.33;65.57
77572;BME280;67214;47.454;18.966;2023-12-22T06:53:54;98177.25;;;4.47;63.96
77572;BME280;67214;47.454;18.966;2023-12-22T06:56:24;98178.80;;;4.44;64.23
77572;BME280;67214;47.454;18.966;2023-12-22T06:58:53;98178.00;;;4.44;63.55
77572;BME280;67214;47.454;18.966;2023-12-22T07:01:28;98189.58;;;4.56;62.57
77572;BME280;67214;47.454;18.966;2023-12-22T07:03:51;98191.48;;;4.79;61.07
77572;BME280;67214;47.454;18.966;2023-12-22T07:06:20;98180.34;;;4.81;61.05
77572;BME280;67214;47.454;18.966;2023-12-22T07:11:42;98201.77;;;4.86;60.81
77572;BME280;67214;47.454;18.966;2023-12-22T07:14:10;98207.73;;;4.88;60.81
77572;BME280;67214;47.454;18.966;2023-12-22T07:16:38;98217.33;;;4.93;60.75
77572;BME280;67214;47.454;18.966;2023-12-22T07:19:05;98205.67;;;4.92;61.29
77572;BME280;67214;47.454;18.966;2023-12-22T07:21:33;98209.87;;;4.98;60.03
77572;BME280;67214;47.454;18.966;2023-12-22T07:24:01;98207.53;;;4.95;60.93
77572;BME280;67214;47.454;18.966;2023-12-22T07:26:28;98212.52;;;4.89;61.53
77572;BME280;67214;47.454;18.966;2023-12-22T07:28:56;98210.44;;;4.92;61.12
77572;BME280;67214;47.454;18.966;2023-12-22T07:31:23;98197.05;;;5.05;61.07
77572;BME280;67214;47.454;18.966;2023-12-22T07:33:51;98193.44;;;4.96;61.98
77572;BME280;67214;47.454;18.966;2023-12-22T07:36:19;98197.92;;;5.09;61.60
77572;BME280;67214;47.454;18.966;2023-12-22T07:38:47;98195.30;;;5.09;61.26
77572;BME280;67214;47.454;18.966;2023-12-22T07:41:15;98198.97;;;5.03;62.69
77572;BME280;67214;47.454;18.966;2023-12-22T07:43:42;98194.14;;;5.08;62.66
77572;BME280;67214;47.454;18.966;2023-12-22T07:46:18;98202.45;;;5.13;62.80
77572;BME280;67214;47.454;18.966;2023-12-22T07:48:44;98209.56;;;5.17;62.63
77572;BME280;67214;47.454;18.966;2023-12-22T07:51:12;98210.81;;;5.32;61.93
77572;BME280;67214;47.454;18.966;2023-12-22T07:53:39;98207.89;;;5.35;62.73
77572;BME280;67214;47.454;18.966;2023-12-22T07:56:07;98192.96;;;5.35;62.63
77572;BME280;67214;47.454;18.966;2023-12-22T07:58:37;98216.55;;;5.41;63.15
77572;BME280;67214;47.454;18.966;2023-12-22T08:01:04;98208.95;;;5.38;63.39
77572;BME280;67214;47.454;18.966;2023-12-22T08:03:35;98219.47;;;5.38;63.28
77572;BME280;67214;47.454;18.966;2023-12-22T08:06:04;98214.67;;;5.47;63.11
77572;BME280;67214;47.454;18.966;2023-12-22T08:08:31;98225.73;;;5.50;63.73
77572;BME280;67214;47.454;18.966;2023-12-22T08:11:00;98229.83;;;5.49;63.77
77572;BME280;67214;47.454;18.966;2023-12-22T08:13:27;98215.48;;;5.67;62.90
77572;BME280;67214;47.454;18.966;2023-12-22T08:15:54;98224.75;;;5.71;63.57
77572;BME280;67214;47.454;18.966;2023-12-22T08:18:22;98214.16;;;5.67;63.28
77572;BME280;67214;47.454;18.966;2023-12-22T08:20:50;98201.42;;;5.72;63.61
77572;BME280;67214;47.454;18.966;2023-12-22T08:23:17;98204.89;;;5.82;62.55
77572;BME280;67214;47.454;18.966;2023-12-22T08:25:44;98204.05;;;5.81;63.18
77572;BME280;67214;47.454;18.966;2023-12-22T08:28:12;98200.67;;;5.94;62.14
77572;BME280;67214;47.454;18.966;2023-12-22T08:30:39;98200.73;;;5.98;62.01
77572;BME280;67214;47.454;18.966;2023-12-22T08:33:07;98197.51;;;6.04;61.57
77572;BME280;67214;47.454;18.966;2023-12-22T08:35:34;98196.06;;;6.06;61.98
77572;BME280;67214;47.454;18.966;2023-12-22T08:38:02;98208.92;;;6.09;61.40
77572;BME280;67214;47.454;18.966;2023-12-22T08:40:29;98211.96;;;6.14;61.23
77572;BME280;67214;47.454;18.966;2023-12-22T08:42:56;98229.42;;;6.15;61.71
77572;BME280;67214;47.454;18.966;2023-12-22T08:45:27;98229.61;;;6.18;62.11
77572;BME280;67214;47.454;18.966;2023-12-22T08:47:57;98226.68;;;6.21;61.97
77572;BME280;67214;47.454;18.966;2023-12-22T08:50:24;98232.70;;;6.27;62.19
77572;BME280;67214;47.454;18.966;2023-12-22T08:52:52;98220.86;;;6.27;61.52
77572;BME280;67214;47.454;18.966;2023-12-22T08:55:19;98227.55;;;6.35;61.93
77572;BME280;67214;47.454;18.966;2023-12-22T08:57:47;98236.87;;;6.43;61.17
77572;BME280;67214;47.454;18.966;2023-12-22T09:00:15;98250.44;;;6.48;61.29
77572;BME280;67214;47.454;18.966;2023-12-22T09:02:42;98257.16;;;6.46;61.40
77572;BME280;67214;47.454;18.966;2023-12-22T09:05:09;98261.18;;;6.41;61.22
77572;BME280;67214;47.454;18.966;2023-12-22T09:07:37;98248.23;;;6.43;61.52
77572;BME280;67214;47.454;18.966;2023-12-22T09:10:06;98242.86;;;6.49;61.46
77572;BME280;67214;47.454;18.966;2023-12-22T09:12:33;98240.22;;;6.49;62.11
77572;BME280;67214;47.454;18.966;2023-12-22T09:15:01;98246.30;;;6.59;60.99
77572;BME280;67214;47.454;18.966;2023-12-22T09:17:30;98226.94;;;6.64;61.22
77572;BME280;67214;47.454;18.966;2023-12-22T09:19:58;98248.86;;;6.69;60.85
77572;BME280;67214;47.454;18.966;2023-12-22T09:22:25;98247.41;;;6.70;60.20
77572;BME280;67214;47.454;18.966;2023-12-22T09:24:52;98251.41;;;6.74;59.85
77572;BME280;67214;47.454;18.966;2023-12-22T09:27:20;98248.59;;;6.72;59.72
77572;BME280;67214;47.454;18.966;2023-12-22T09:29:47;98227.36;;;6.73;60.12
77572;BME280;67214;47.454;18.966;2023-12-22T09:32:15;98234.94;;;6.72;60.35
77572;BME280;67214;47.454;18.966;2023-12-22T09:34:43;98225.52;;;6.83;59.81
77572;BME280;67214;47.454;18.966;2023-12-22T09:37:10;98223.31;;;6.79;59.38
77572;BME280;67214;47.454;18.966;2023-12-22T09:39:38;98223.98;;;6.81;59.61
77572;BME280;67214;47.454;18.966;2023-12-22T09:42:05;98233.55;;;6.95;59.64
77572;BME280;67214;47.454;18.966;2023-12-22T09:44:33;98239.00;;;6.98;58.99
77572;BME280;67214;47.454;18.966;2023-12-22T09:47:04;98211.82;;;6.97;58.82
77572;BME280;67214;47.454;18.966;2023-12-22T09:49:34;98240.72;;;7.03;59.21
77572;BME280;67214;47.454;18.966;2023-12-22T09:52:02;98246.60;;;7.15;59.14
77572;BME280;67214;47.454;18.966;2023-12-22T09:54:32;98231.66;;;7.19;59.32
77572;BME280;67214;47.454;18.966;2023-12-22T09:57:04;98227.27;;;7.24;58.37
77572;BME280;67214;47.454;18.966;2023-12-22T09:59:32;98228.36;;;7.17;58.92
77572;BME280;67214;47.454;18.966;2023-12-22T10:02:00;98244.17;;;7.17;58.57
77572;BME280;67214;47.454;18.966;2023-12-22T10:04:29;98238.43;;;6.90;59.79
77572;BME280;67214;47.454;18.966;2023-12-22T10:06:59;98244.62;;;6.85;59.97
77572;BME280;67214;47.454;18.966;2023-12-22T10:09:28;98220.95;;;6.89;60.20
77572;BME280;67214;47.454;18.966;2023-12-22T10:11:57;98228.16;;;7.01;60.04
77572;BME280;67214;47.454;18.966;2023-12-22T10:14:26;98217.47;;;7.16;59.73
77572;BME280;67214;47.454;18.966;2023-12-22T10:16:55;98228.97;;;7.29;59.38
77572;BME280;67214;47.454;18.966;2023-12-22T10:19:22;98215.30;;;7.29;59.12
77572;BME280;67214;47.454;18.966;2023-12-22T10:21:50;98250.47;;;7.07;59.54
77572;BME280;67214;47.454;18.966;2023-12-22T10:24:46;98238.03;;;6.85;60.13
77572;BME280;67214;47.454;18.966;2023-12-22T10:27:13;98232.94;;;6.84;60.72
77572;BME280;67214;47.454;18.966;2023-12-22T10:29:41;98227.63;;;6.97;60.70
77572;BME280;67214;47.454;18.966;2023-12-22T10:32:08;98225.78;;;7.08;60.45
77572;BME280;67214;47.454;18.966;2023-12-22T10:34:36;98229.77;;;7.12;60.08
77572;BME280;67214;47.454;18.966;2023-12-22T10:37:04;98208.39;;;7.01;60.26
77572;BME280;67214;47.454;18.966;2023-12-22T10:39:32;98211.23;;;7.04;59.80
77572;BME280;67214;47.454;18.966;2023-12-22T10:42:00;98195.65;;;6.92;59.71
77572;BME280;67214;47.454;18.966;2023-12-22T10:44:29;98190.30;;;6.84;60.44
77572;BME280;67214;47.454;18.966;2023-12-22T10:46:57;98178.75;;;6.85;60.38
77572;BME280;67214;47.454;18.966;2023-12-22T10:49:25;98190.03;;;6.91;60.57
77572;BME280;67214;47.454;18.966;2023-12-22T10:51:53;98199.30;;;6.82;60.73
77572;BME280;67214;47.454;18.966;2023-12-22T10:54:20;98167.23;;;7.00;60.41
77572;BME280;67214;47.454;18.966;2023-12-22T10:56:48;98189.42;;;6.97;60.49
77572;BME280;67214;47.454;18.966;2023-12-22T10:59:19;98188.06;;;6.93;60.32
77572;BME280;67214;47.454;18.966;2023-12-22T11:01:48;98186.87;;;6.88;60.94
77572;BME280;67214;47.454;18.966;2023-12-22T11:04:20;98195.61;;;7.06;60.43
77572;BME280;67214;47.454;18.966;2023-12-22T11:06:50;98199.81;;;7.13;59.75
77572;BME280;67214;47.454;18.966;2023-12-22T11:09:21;98205.69;;;7.24;59.47
77572;BME280;67214;47.454;18.966;2023-12-22T11:11:49;98193.61;;;7.22;58.74
77572;BME280;67214;47.454;18.966;2023-12-22T11:14:17;98204.48;;;7.36;58.42
77572;BME280;67214;47.454;18.966;2023-12-22T11:16:47;98196.63;;;7.27;58.31
77572;BME280;67214;47.454;18.966;2023-12-22T11:19:16;98196.19;;;7.49;58.25
77572;BME280;67214;47.454;18.966;2023-12-22T11:21:45;98200.28;;;7.47;57.48
77572;BME280;67214;47.454;18.966;2023-12-22T11:24:15;98199.94;;;7.46;58.11
77572;BME280;67214;47.454;18.966;2023-12-22T11:26:43;98186.27;;;7.47;57.93
77572;BME280;67214;47.454;18.966;2023-12-22T11:29:12;98203.81;;;7.56;57.61
77572;BME280;67214;47.454;18.966;2023-12-22T11:31:41;98198.33;;;7.50;57.89
77572;BME280;67214;47.454;18.966;2023-12-22T11:34:11;98198.69;;;7.55;57.90
77572;BME280;67214;47.454;18.966;2023-12-22T11:36:40;98207.08;;;7.32;57.24
77572;BME280;67214;47.454;18.966;2023-12-22T11:39:08;98217.80;;;7.35;56.25
77572;BME280;67214;47.454;18.966;2023-12-22T11:41:36;98204.52;;;7.40;57.03
77572;BME280;67214;47.454;18.966;2023-12-22T11:44:06;98209.75;;;7.36;56.44
77572;BME280;67214;47.454;18.966;2023-12-22T11:46:33;98214.72;;;7.57;55.77
77572;BME280;67214;47.454;18.966;2023-12-22T11:49:01;98193.19;;;7.91;55.51
77572;BME280;67214;47.454;18.966;2023-12-22T11:51:33;98192.84;;;8.16;54.69
77572;BME280;67214;47.454;18.966;2023-12-22T11:56:52;98205.44;;;8.22;53.51
77572;BME280;67214;47.454;18.966;2023-12-22T11:59:21;98205.23;;;7.90;53.42
77572;BME280;67214;47.454;18.966;2023-12-22T12:01:54;98221.57;;;8.19;53.34
77572;BME280;67214;47.454;18.966;2023-12-22T12:04:21;98208.13;;;8.05;53.25
77572;BME280;67214;47.454;18.966;2023-12-22T12:06:48;98213.67;;;7.93;54.21
77572;BME280;67214;47.454;18.966;2023-12-22T12:09:16;98227.38;;;7.97;54.91
77572;BME280;67214;47.454;18.966;2023-12-22T12:14:28;98190.42;;;7.50;56.82
77572;BME280;67214;47.454;18.966;2023-12-22T12:17:06;98218.05;;;7.41;57.10
77572;BME280;67214;47.454;18.966;2023-12-22T12:19:41;98226.02;;;7.32;56.88
77572;BME280;67214;47.454;18.966;2023-12-22T12:22:05;98214.60;;;7.27;57.31
77572;BME280;67214;47.454;18.966;2023-12-22T12:24:33;98206.69;;;7.27;56.48
77572;BME280;67214;47.454;18.966;2023-12-22T12:27:07;98199.96;;;7.29;57.22
77572;BME280;67214;47.454;18.966;2023-12-22T12:29:34;98219.23;;;7.12;56.15
77572;BME280;67214;47.454;18.966;2023-12-22T12:32:05;98229.73;;;7.08;56.15
77572;BME280;67214;47.454;18.966;2023-12-22T12:34:33;98229.69;;;7.04;56.77
77572;BME280;67214;47.454;18.966;2023-12-22T12:37:01;98245.41;;;6.95;57.18
77572;BME280;67214;47.454;18.966;2023-12-22T12:39:30;98240.23;;;6.90;57.20
77572;BME280;67214;47.454;18.966;2023-12-22T12:42:00;98248.20;;;6.67;57.75
77572;BME280;67214;47.454;18.966;2023-12-22T12:44:29;98240.08;;;6.14;61.26
77572;BME280;67214;47.454;18.966;2023-12-22T12:47:00;98256.17;;;5.91;63.35
77572;BME280;67214;47.454;18.966;2023-12-22T12:49:29;98234.03;;;5.94;65.19
77572;BME280;67214;47.454;18.966;2023-12-22T12:51:56;98240.25;;;6.02;65.05
77572;BME280;67214;47.454;18.966;2023-12-22T12:54:24;98238.41;;;6.13;63.84
77572;BME280;67214;47.454;18.966;2023-12-22T12:56:53;98226.73;;;6.11;65.57
77572;BME280;67214;47.454;18.966;2023-12-22T12:59:20;98238.39;;;5.99;65.51
77572;BME280;67214;47.454;18.966;2023-12-22T13:01:49;98242.70;;;5.90;66.12
77572;BME280;67214;47.454;18.966;2023-12-22T13:04:16;98238.78;;;5.85;67.26
77572;BME280;67214;47.454;18.966;2023-12-22T13:06:50;98225.70;;;5.79;68.18
77572;BME280;67214;47.454;18.966;2023-12-22T13:09:18;98228.37;;;5.70;68.29
77572;BME280;67214;47.454;18.966;2023-12-22T13:11:46;98231.41;;;5.55;69.29
77572;BME280;67214;47.454;18.966;2023-12-22T13:14:23;98250.09;;;5.43;70.69